KISO

Kinston Regional Jetport at Stallings Field Airport

Kinston, North Carolina, USA
KISO 151120Z 1512/1612 24003KT P6SM FEW250 FM151900 24004KT P6SM SCT045 SCT250 FM160700 00000KT 5SM BR SCT250 AMD LTD TO CLD VIS AND WIND
Issued Valid From Valid To
Aug-15 @ 11:20 UTC
(an hour ago)
Aug-15 @ 12:00 UTC
(38 minutes ago)
Aug-16 @ 12:00 UTC
(in 23 hours)
Aug-15 @ 12:00 to Aug-15 @ 19:00
KISO 151120Z 1512/1612 24003KT P6SM FEW250
Wind Visibility Clouds
240° at 3 knots Greater than 6 miles
  • Few at 25,000' AGL
From Aug-15 @ 19:00 to Aug-16 @ 07:00
FM151900 24004KT P6SM SCT045 SCT250
Wind Visibility Clouds
240° at 4 knots Greater than 6 miles
  • Scattered at 4,500' AGL
  • Scattered at 25,000' AGL
From Aug-16 @ 07:00 to Aug-16 @ 12:00
FM160700 00000KT 5SM BR SCT250 AMD LTD TO CLD VIS AND WIND
Visibility Clouds Conditions
5 miles
  • Scattered at 25,000' AGL
  • Mist
KISO 151120Z 1512/1612 24003KT P6SM FEW250 FM151900 24004KT P6SM SCT045 SCT250 FM160700 00000KT 5SM BR SCT250 AMD LTD TO CLD VIS AND WIND
Issued Aug-15 @ 11:20 UTC
(an hour ago)
Valid From Aug-15 @ 12:00 UTC
(38 minutes ago)
Valid To Aug-16 @ 12:00 UTC
(in 23 hours)
Aug-15 @ 12:00 - Aug-15 @ 19:00
Wind Visibility
240° at 3 knots Greater than 6 miles
Clouds
  • Few at 25,000' AGL
From Aug-15 @ 19:00 - Aug-16 @ 07:00
Wind Visibility
240° at 4 knots Greater than 6 miles
Clouds
  • Scattered at 4,500' AGL
  • Scattered at 25,000' AGL
From Aug-16 @ 07:00 - Aug-16 @ 12:00
Clouds
  • Scattered at 25,000' AGL
Conditions
  • Mist